Time;durP1;ratioP1;P1;durP2;ratioP2;P2;SDS_P1;SDS_P2;PMS_P1;PMS_P2;Temp;Humidity;BMP_temperature;BMP_pressure;BME280_temperature;BME280_humidity;BME280_pressure;Samples;Min_cycle;Max_cycle;Signal;HPM_P1;HPM_P2
2022/06/30 00:00:35;;;;;;;10.50;6.55;;;;;;;22.59;57.47;94646.81;4145274;28;20054;-65
2022/06/30 00:02:37;;;;;;;8.93;6.25;;;;;;;22.59;57.38;94640.66;4142811;28;20464;-66
2022/06/30 00:04:39;;;;;;;11.55;6.90;;;;;;;22.66;57.63;94644.00;4142603;28;20054;-66
2022/06/30 00:06:41;;;;;;;8.77;5.70;;;;;;;22.66;57.23;94644.00;4133616;28;20084;-66
2022/06/30 00:08:42;;;;;;;10.93;6.88;;;;;;;22.71;57.36;94638.75;4137131;28;20401;-65
2022/06/30 00:10:44;;;;;;;10.48;6.72;;;;;;;22.74;57.36;94646.31;4138268;28;20049;-65
2022/06/30 00:12:46;;;;;;;9.80;6.47;;;;;;;22.74;57.40;94646.31;4130569;28;20054;-65
2022/06/30 00:14:48;;;;;;;11.13;6.35;;;;;;;22.77;57.38;94647.69;4128639;28;20244;-66
2022/06/30 00:16:50;;;;;;;9.85;6.50;;;;;;;22.78;57.41;94643.97;4132503;28;20046;-66
2022/06/30 00:18:52;;;;;;;11.85;6.30;;;;;;;22.77;56.37;94648.50;4136316;28;20061;-67
2022/06/30 00:20:54;;;;;;;9.15;6.22;;;;;;;22.77;57.17;94650.38;4127903;28;20062;-65
2022/06/30 00:22:56;;;;;;;8.68;6.05;;;;;;;22.73;56.82;94647.34;4153288;28;20120;-67
2022/06/30 00:24:58;;;;;;;12.13;6.43;;;;;;;22.47;57.32;94644.16;4134807;28;20058;-66
2022/06/30 00:27:00;;;;;;;7.97;5.55;;;;;;;22.26;57.40;94642.91;4144944;28;20062;-65
2022/06/30 00:29:02;;;;;;;6.40;5.35;;;;;;;21.64;57.79;94645.16;4132780;28;20054;-64
2022/06/30 00:31:04;;;;;;;10.38;5.22;;;;;;;21.09;59.19;94643.44;4141823;28;20104;-65
2022/06/30 00:33:05;;;;;;;9.32;5.03;;;;;;;21.04;59.51;94644.13;4140270;28;20073;-66
2022/06/30 00:35:07;;;;;;;8.05;5.00;;;;;;;21.12;59.78;94632.34;4127539;28;20100;-66
2022/06/30 00:37:09;;;;;;;6.47;4.85;;;;;;;21.26;59.28;94640.97;4136854;28;20053;-65
2022/06/30 00:39:11;;;;;;;8.50;5.00;;;;;;;21.11;60.02;94637.91;4132718;28;20051;-67
2022/06/30 00:41:13;;;;;;;8.52;5.55;;;;;;;20.87;61.16;94643.13;4141975;28;20429;-65
2022/06/30 00:43:15;;;;;;;8.85;6.05;;;;;;;20.78;61.69;94644.44;4141409;28;20057;-65
2022/06/30 00:45:17;;;;;;;9.82;6.20;;;;;;;20.38;63.61;94647.56;4128696;28;20398;-64
2022/06/30 00:47:18;;;;;;;14.68;6.18;;;;;;;20.22;64.34;94640.97;4128702;28;20050;-65
2022/06/30 00:49:20;;;;;;;9.88;6.72;;;;;;;20.20;64.65;94649.16;4138120;28;20437;-67
2022/06/30 00:51:22;;;;;;;5.95;5.35;;;;;;;20.40;64.04;94640.16;4137469;28;20054;-64
2022/06/30 00:53:25;;;;;;;8.73;5.68;;;;;;;20.62;63.55;94638.69;4147045;28;20072;-66
2022/06/30 00:55:27;;;;;;;8.40;6.65;;;;;;;20.41;64.61;94644.44;4133537;28;20053;-67
2022/06/30 00:57:30;;;;;;;11.88;6.93;;;;;;;19.91;66.20;94637.38;4137241;28;20050;-66
2022/06/30 00:59:33;;;;;;;11.60;6.57;;;;;;;19.60;67.62;94652.31;4147302;28;20049;-67
2022/06/30 01:01:36;;;;;;;8.52;7.18;;;;;;;19.37;68.40;94646.75;4135974;28;20112;-65
2022/06/30 01:03:38;;;;;;;8.80;7.30;;;;;;;19.35;68.89;94640.84;4130128;28;20117;-65
2022/06/30 01:05:40;;;;;;;9.15;7.10;;;;;;;19.52;68.35;94639.28;4144559;28;20671;-65
2022/06/30 01:07:42;;;;;;;11.30;7.45;;;;;;;19.67;67.85;94630.19;4138098;28;20057;-65
2022/06/30 01:14:25;;;;;;;10.43;7.07;;;;;;;19.73;67.53;94627.50;4137144;28;20081;-66
2022/06/30 01:16:28;;;;;;;9.75;7.07;;;;;;;19.92;67.41;94639.00;4138468;28;20066;-66
2022/06/30 01:18:33;;;;;;;8.48;7.43;;;;;;;20.14;66.72;94625.31;4140984;28;20049;-66
2022/06/30 01:20:35;;;;;;;8.88;6.80;;;;;;;20.37;65.46;94633.44;4133072;28;20093;-68
2022/06/30 01:22:37;;;;;;;7.18;6.40;;;;;;;20.56;64.65;94639.56;4159105;28;20054;-65
2022/06/30 01:24:39;;;;;;;9.52;6.68;;;;;;;20.74;64.28;94635.31;4147261;28;20081;-66
2022/06/30 01:26:41;;;;;;;8.82;6.80;;;;;;;20.89;63.70;94637.56;4140891;28;20482;-65
2022/06/30 01:28:42;;;;;;;7.72;6.45;;;;;;;21.02;63.11;94632.88;4131123;28;20112;-65
2022/06/30 01:30:44;;;;;;;7.97;6.18;;;;;;;21.16;62.45;94628.19;4135675;28;20050;-65
2022/06/30 01:32:46;;;;;;;8.32;6.30;;;;;;;21.24;62.18;94624.41;4121981;28;20042;-65
2022/06/30 01:34:48;;;;;;;7.88;6.18;;;;;;;21.26;61.99;94628.44;4144197;28;20157;-67
2022/06/30 01:36:50;;;;;;;14.57;6.20;;;;;;;21.31;61.81;94632.28;4136093;28;20060;-65
2022/06/30 01:38:52;;;;;;;7.68;6.28;;;;;;;21.36;61.73;94627.91;4140247;28;20548;-66
2022/06/30 01:40:57;;;;;;;7.85;6.07;;;;;;;21.41;61.08;94629.91;4132558;28;20045;-65
2022/06/30 01:43:00;;;;;;;7.80;6.35;;;;;;;21.47;60.96;94623.69;4141206;28;20470;-66
2022/06/30 01:45:03;;;;;;;10.20;6.38;;;;;;;21.51;60.91;94626.69;4147381;28;20485;-65
2022/06/30 01:47:05;;;;;;;10.15;6.00;;;;;;;21.53;60.46;94621.94;4139948;28;20058;-66
2022/06/30 01:49:07;;;;;;;8.15;5.72;;;;;;;21.53;59.89;94622.78;4142971;28;20046;-65
2022/06/30 01:51:08;;;;;;;6.15;5.43;;;;;;;21.48;59.39;94630.63;4130132;28;20089;-65
2022/06/30 01:53:10;;;;;;;6.72;5.22;;;;;;;21.47;59.10;94629.03;4140932;28;20049;-67
2022/06/30 01:55:12;;;;;;;9.63;4.97;;;;;;;21.42;58.87;94620.88;4138756;28;20050;-65
2022/06/30 01:57:14;;;;;;;9.15;5.50;;;;;;;21.47;58.99;94623.69;4135277;28;20046;-66
2022/06/30 01:59:16;;;;;;;6.88;5.20;;;;;;;21.51;58.92;94624.03;4130354;28;20054;-66
2022/06/30 02:01:18;;;;;;;7.13;5.30;;;;;;;21.46;58.91;94616.72;4131021;28;20050;-66
2022/06/30 02:03:20;;;;;;;6.80;4.80;;;;;;;21.47;59.25;94623.69;4133668;28;20149;-66
2022/06/30 02:05:22;;;;;;;8.45;6.00;;;;;;;21.49;59.19;94629.59;4144496;28;20050;-66
2022/06/30 02:07:24;;;;;;;8.00;5.80;;;;;;;21.50;59.05;94623.22;4140955;28;20466;-65
2022/06/30 02:09:26;;;;;;;9.32;5.95;;;;;;;21.52;58.84;94623.81;4137071;28;20050;-65
2022/06/30 02:11:28;;;;;;;8.30;5.70;;;;;;;21.51;58.98;94624.03;4143687;28;20509;-66
2022/06/30 02:13:30;;;;;;;10.70;5.85;;;;;;;21.53;59.58;94629.94;4130226;28;20638;-66
2022/06/30 02:15:36;;;;;;;7.20;5.47;;;;;;;21.51;59.11;94635.50;4130751;28;20108;-64
2022/06/30 02:17:38;;;;;;;7.88;5.03;;;;;;;21.52;58.80;94631.78;4129583;28;20595;-65
2022/06/30 02:19:40;;;;;;;7.47;5.25;;;;;;;21.52;58.66;94633.66;4129504;28;20674;-66
2022/06/30 02:21:42;;;;;;;7.07;5.10;;;;;;;21.49;58.51;94624.28;4144735;28;20077;-66
2022/06/30 02:23:44;;;;;;;8.20;4.90;;;;;;;21.46;58.30;94630.84;4137080;28;20050;-65
2022/06/30 02:25:46;;;;;;;5.80;5.20;;;;;;;21.45;58.17;94628.44;4130084;28;20391;-65
2022/06/30 02:27:48;;;;;;;6.07;4.60;;;;;;;21.46;58.28;94632.72;4142924;28;20061;-66
2022/06/30 02:29:53;;;;;;;6.47;3.92;;;;;;;21.42;57.23;94631.53;4134136;28;20116;-65
2022/06/30 02:31:55;;;;;;;11.10;4.50;;;;;;;21.35;57.29;94630.81;4136359;28;20073;-65
2022/06/30 02:33:57;;;;;;;6.45;4.57;;;;;;;21.38;57.11;94633.00;4134564;28;20057;-67
2022/06/30 02:35:59;;;;;;;6.30;4.25;;;;;;;21.33;57.22;94632.88;4130700;28;20058;-64
2022/06/30 02:38:09;;;;;;;10.63;5.00;;;;;;;21.28;57.36;94636.22;4144412;28;20060;-65
2022/06/30 02:40:11;;;;;;;6.95;4.55;;;;;;;21.27;57.34;94632.75;4146429;28;20084;-65
2022/06/30 02:42:13;;;;;;;6.75;4.88;;;;;;;21.29;57.66;94637.84;4143783;28;20053;-67
2022/06/30 02:44:15;;;;;;;6.38;4.68;;;;;;;21.27;57.71;94630.09;4116546;28;20260;-64
2022/06/30 02:46:17;;;;;;;7.88;5.05;;;;;;;21.31;57.86;94638.44;4145874;28;20428;-65
2022/06/30 02:48:19;;;;;;;7.57;4.60;;;;;;;21.38;57.62;94648.97;4135474;28;20430;-65
2022/06/30 02:50:21;;;;;;;9.45;4.60;;;;;;;21.36;57.39;94641.25;4141801;28;20049;-65
2022/06/30 02:52:23;;;;;;;7.30;4.80;;;;;;;21.38;57.70;94635.66;4131346;28;20498;-66
2022/06/30 02:54:25;;;;;;;6.07;4.78;;;;;;;21.38;57.48;94636.50;4142296;28;20149;-66
2022/06/30 02:56:26;;;;;;;6.68;4.78;;;;;;;21.38;57.18;94641.00;4130133;28;20054;-65
2022/06/30 02:58:29;;;;;;;7.47;4.78;;;;;;;21.43;57.23;94638.50;4143107;28;20050;-64
2022/06/30 03:00:31;;;;;;;7.32;4.78;;;;;;;21.35;56.79;94636.13;4145531;28;20108;-65
2022/06/30 03:02:33;;;;;;;8.23;4.65;;;;;;;21.39;56.89;94646.09;4144033;28;20128;-64
2022/06/30 03:04:35;;;;;;;7.60;5.18;;;;;;;21.44;57.03;94651.56;4145494;28;20049;-67
2022/06/30 03:06:36;;;;;;;7.40;4.70;;;;;;;21.46;56.99;94641.50;4134623;28;20061;-67
2022/06/30 03:08:38;;;;;;;6.45;4.78;;;;;;;21.46;56.75;94636.19;4143154;28;20460;-64
2022/06/30 03:10:40;;;;;;;12.38;4.93;;;;;;;21.47;56.84;94637.81;4130267;28;20089;-66
2022/06/30 03:12:42;;;;;;;9.70;4.85;;;;;;;21.50;56.81;94641.88;4141902;28;20612;-64
2022/06/30 03:14:44;;;;;;;8.27;5.10;;;;;;;21.50;56.83;94633.88;4144497;28;20137;-65
2022/06/30 03:16:46;;;;;;;9.60;5.40;;;;;;;21.52;57.17;94636.31;4154991;28;20128;-63
2022/06/30 03:18:48;;;;;;;9.15;5.15;;;;;;;21.55;57.27;94636.66;4134458;28;20441;-66
2022/06/30 03:20:50;;;;;;;7.80;5.05;;;;;;;21.56;57.24;94629.50;4128888;28;20069;-66
2022/06/30 03:22:52;;;;;;;7.88;5.05;;;;;;;21.59;57.03;94629.84;4155076;28;20049;-66
2022/06/30 03:24:53;;;;;;;8.25;4.90;;;;;;;21.64;56.88;94621.97;4129395;28;20050;-66
2022/06/30 03:26:55;;;;;;;10.32;5.30;;;;;;;21.67;56.87;94618.84;4128177;28;20057;-67
2022/06/30 03:28:57;;;;;;;8.13;4.95;;;;;;;21.66;56.94;94625.22;4129094;28;20058;-66
2022/06/30 03:30:59;;;;;;;7.72;5.18;;;;;;;21.63;56.72;94630.19;4129417;28;20085;-64
2022/06/30 03:33:01;;;;;;;6.63;5.10;;;;;;;21.62;57.10;94632.06;4127520;28;20065;-64
2022/06/30 03:35:04;;;;;;;9.60;5.30;;;;;;;21.63;57.33;94639.00;4134185;28;20132;-65
2022/06/30 03:37:06;;;;;;;11.73;5.57;;;;;;;21.64;57.27;94629.97;4144674;28;20050;-66
2022/06/30 03:39:08;;;;;;;12.02;5.80;;;;;;;21.55;57.32;94633.19;4135417;28;20130;-64
2022/06/30 03:41:10;;;;;;;9.48;6.05;;;;;;;21.49;57.32;94632.28;4139411;28;20061;-64
2022/06/30 03:43:11;;;;;;;14.90;6.50;;;;;;;21.35;57.69;94639.59;4144913;28;20053;-66
2022/06/30 03:45:13;;;;;;;17.50;6.90;;;;;;;21.31;57.72;94630.44;4133280;28;20080;-64
2022/06/30 03:47:15;;;;;;;10.32;5.93;;;;;;;21.31;58.27;94635.75;4141266;28;20104;-66
2022/06/30 03:49:17;;;;;;;10.30;6.10;;;;;;;21.37;57.69;94642.84;4129563;28;20538;-65
2022/06/30 03:51:19;;;;;;;13.30;6.45;;;;;;;21.42;58.02;94642.19;4139323;28;20102;-66
2022/06/30 03:53:21;;;;;;;12.30;6.03;;;;;;;21.54;57.83;94637.72;4138007;28;20050;-65
2022/06/30 03:55:23;;;;;;;16.08;7.03;;;;;;;21.64;57.69;94640.63;4133461;28;20054;-66
2022/06/30 03:57:25;;;;;;;13.43;7.85;;;;;;;21.77;57.78;94638.78;4133711;28;20046;-66
2022/06/30 03:59:27;;;;;;;10.20;7.40;;;;;;;21.85;57.79;94636.63;4137059;28;20492;-66
2022/06/30 04:01:28;;;;;;;8.93;6.47;;;;;;;21.96;57.40;94637.66;4129060;28;20101;-65
2022/06/30 04:03:31;;;;;;;13.43;6.65;;;;;;;22.05;57.46;94640.78;4127251;28;20058;-66
2022/06/30 04:05:32;;;;;;;16.65;7.45;;;;;;;22.13;56.95;94647.63;4141660;28;20058;-67
2022/06/30 04:07:43;;;;;;;11.65;6.80;;;;;;;22.22;57.23;94647.09;4129297;28;20050;-65
2022/06/30 04:09:45;;;;;;;13.05;6.65;;;;;;;22.30;57.02;94645.91;4130113;28;20054;-65
2022/06/30 04:11:46;;;;;;;13.23;7.65;;;;;;;22.37;57.35;94649.28;4127425;28;20046;-66
2022/06/30 04:13:48;;;;;;;14.57;10.25;;;;;;;22.39;56.97;94644.53;4126967;28;20469;-62
2022/06/30 04:15:50;;;;;;;11.13;8.25;;;;;;;22.43;56.81;94644.84;4131573;28;20049;-65
2022/06/30 04:17:55;;;;;;;13.07;8.45;;;;;;;22.47;56.98;94641.47;4142933;28;20049;-64
2022/06/30 04:19:57;;;;;;;10.48;8.38;;;;;;;22.49;57.03;94647.41;4136170;28;20057;-66
2022/06/30 04:21:58;;;;;;;12.20;8.07;;;;;;;22.57;56.75;94653.44;4146651;28;20049;-65
2022/06/30 04:24:00;;;;;;;12.75;8.50;;;;;;;22.53;56.86;94647.75;4133847;28;20054;-65
2022/06/30 04:26:02;;;;;;;10.93;7.53;;;;;;;22.57;57.02;94642.75;4140681;28;20053;-66
2022/06/30 04:28:04;;;;;;;13.38;7.97;;;;;;;22.60;56.48;94652.94;4140192;28;20142;-66
2022/06/30 04:30:06;;;;;;;11.43;7.55;;;;;;;22.64;56.54;94646.09;4133301;28;20484;-66
2022/06/30 04:34:34;;;;;;;9.57;7.25;;;;;;;22.80;56.37;94641.88;4129085;28;20064;-66
2022/06/30 04:36:36;;;;;;;10.15;7.25;;;;;;;22.85;56.09;94645.47;4138430;28;20056;-65
2022/06/30 04:38:38;;;;;;;13.15;7.15;;;;;;;22.88;55.94;94654.88;4134816;28;20128;-67
2022/06/30 04:43:00;;;;;;;10.55;7.60;;;;;;;22.97;55.93;94647.28;4143838;28;20390;-65
2022/06/30 04:45:02;;;;;;;10.80;7.03;;;;;;;23.01;56.02;94651.13;4134131;28;20050;-65
2022/06/30 04:47:04;;;;;;;10.65;8.30;;;;;;;22.99;56.64;94653.19;4127142;28;20046;-66
2022/06/30 04:49:07;;;;;;;10.77;8.70;;;;;;;22.78;56.28;94650.16;4141512;28;20054;-67
2022/06/30 04:51:09;;;;;;;12.68;8.43;;;;;;;22.74;56.78;94653.53;4144142;28;20140;-67
2022/06/30 04:53:11;;;;;;;16.00;8.90;;;;;;;22.75;57.35;94658.59;4137411;28;20375;-64
2022/06/30 04:55:13;;;;;;;18.90;8.25;;;;;;;22.79;57.48;94653.63;4138311;28;20458;-66
2022/06/30 04:57:15;;;;;;;15.98;7.97;;;;;;;22.85;57.22;94656.16;4143279;28;20148;-66
2022/06/30 04:59:16;;;;;;;9.95;7.50;;;;;;;22.93;56.93;94656.81;4129686;28;20057;-66
2022/06/30 05:01:18;;;;;;;11.57;7.22;;;;;;;23.04;56.67;94661.38;4135504;28;20054;-64
2022/06/30 05:03:20;;;;;;;12.20;8.57;;;;;;;23.17;56.19;94658.41;4126637;28;20042;-66
2022/06/30 05:05:22;;;;;;;10.35;8.85;;;;;;;23.18;55.92;94654.66;4128056;28;20112;-66
2022/06/30 05:07:24;;;;;;;12.70;8.07;;;;;;;23.18;55.87;94654.66;4133340;28;20074;-66
2022/06/30 05:09:25;;;;;;;11.18;8.05;;;;;;;23.25;55.87;94651.84;4136228;28;20051;-65
2022/06/30 05:11:27;;;;;;;9.10;8.13;;;;;;;23.31;55.73;94654.38;4129118;28;20053;-66
2022/06/30 05:13:29;;;;;;;16.73;11.05;;;;;;;23.41;55.96;94660.97;4138615;28;20054;-66
2022/06/30 05:15:31;;;;;;;14.57;11.32;;;;;;;23.44;55.90;94655.94;4143523;28;20046;-66
2022/06/30 05:17:34;;;;;;;23.17;14.52;;;;;;;23.49;55.81;94657.94;4134189;28;20038;-67
2022/06/30 05:19:36;;;;;;;18.10;13.55;;;;;;;23.56;55.59;94665.78;4128910;28;20124;-66
2022/06/30 05:21:38;;;;;;;15.75;13.10;;;;;;;23.60;55.95;94670.41;4132759;28;20057;-66
2022/06/30 05:26:28;;;;;;;18.70;14.55;;;;;;;23.63;55.55;94666.44;4140741;28;20061;-65
2022/06/30 05:28:22;;;;;;;20.67;16.75;;;;;;;23.54;55.45;94659.88;4144106;28;20046;-64
2022/06/30 05:30:24;;;;;;;22.02;15.52;;;;;;;23.44;55.59;94665.84;4138855;28;20046;-65
2022/06/30 05:32:26;;;;;;;21.08;14.27;;;;;;;23.37;55.89;94662.50;4138061;28;20058;-64
2022/06/30 05:34:27;;;;;;;22.85;15.20;;;;;;;23.26;56.30;94667.66;4142134;28;20058;-66
2022/06/30 05:36:29;;;;;;;25.40;15.10;;;;;;;23.28;56.34;94670.91;4141129;28;20057;-66
2022/06/30 05:38:31;;;;;;;23.10;14.75;;;;;;;23.30;56.23;94674.16;4133013;28;20050;-66
2022/06/30 05:40:33;;;;;;;20.05;15.27;;;;;;;23.28;56.46;94670.91;4145357;28;20081;-66
2022/06/30 05:42:35;;;;;;;18.63;14.40;;;;;;;23.31;56.79;94677.63;4144912;28;20046;-65
2022/06/30 05:44:37;;;;;;;20.77;15.18;;;;;;;23.35;56.53;94676.09;4138922;28;20061;-66
2022/06/30 05:46:38;;;;;;;27.13;16.40;;;;;;;23.40;55.79;94676.19;4129720;28;20054;-64
2022/06/30 05:48:40;;;;;;;19.90;15.45;;;;;;;23.50;55.60;94676.38;4140103;28;20046;-65
2022/06/30 05:50:47;;;;;;;16.25;13.23;;;;;;;23.61;55.86;94680.03;4144433;28;20053;-65
2022/06/30 05:52:53;;;;;;;25.20;14.95;;;;;;;23.36;57.20;94682.25;4135089;28;20084;-66
2022/06/30 05:54:56;;;;;;;21.60;13.27;;;;;;;23.40;56.96;94681.53;4146355;28;20064;-67
2022/06/30 05:56:58;;;;;;;20.60;12.13;;;;;;;23.44;56.72;94680.00;4145807;28;20057;-66
2022/06/30 05:58:59;;;;;;;15.02;11.20;;;;;;;23.60;56.22;94682.97;4145014;28;20045;-65
2022/06/30 06:01:01;;;;;;;18.10;12.15;;;;;;;23.63;56.26;94683.28;4146479;28;20064;-65
2022/06/30 06:03:04;;;;;;;15.48;11.68;;;;;;;23.77;55.76;94683.84;4135396;28;20086;-66
2022/06/30 06:05:07;;;;;;;15.10;10.40;;;;;;;23.68;54.37;94691.41;4142680;28;20053;-66
2022/06/30 06:07:09;;;;;;;13.88;9.63;;;;;;;23.68;54.68;94685.25;4131508;28;20061;-66
2022/06/30 06:09:11;;;;;;;13.05;9.23;;;;;;;23.64;53.91;94679.56;4131502;28;20074;-67
2022/06/30 06:11:13;;;;;;;16.17;9.02;;;;;;;23.80;53.80;94683.34;4136841;28;20046;-66
2022/06/30 06:13:15;;;;;;;13.57;10.13;;;;;;;24.00;53.82;94690.88;4146095;28;20116;-65
2022/06/30 06:15:16;;;;;;;14.57;10.23;;;;;;;24.17;54.16;94682.06;4134695;28;20057;-65
2022/06/30 06:17:18;;;;;;;15.23;10.27;;;;;;;24.35;53.95;94689.00;4130436;28;20077;-66
2022/06/30 06:19:21;;;;;;;16.77;10.98;;;;;;;24.51;53.73;94694.38;4132627;28;20074;-67
2022/06/30 06:21:24;;;;;;;;;;;;;;;24.56;53.38;94688.28;4149383;28;20049;-65
2022/06/30 06:23:26;;;;;;;15.27;9.48;;;;;;;24.32;53.20;94701.03;4154483;28;19960;-64
2022/06/30 06:25:28;;;;;;;13.75;9.65;;;;;;;24.27;53.44;94693.72;4135504;28;20116;-66
2022/06/30 06:27:29;;;;;;;18.10;9.35;;;;;;;24.11;53.95;94699.88;4142915;28;20045;-64
2022/06/30 06:29:31;;;;;;;13.70;9.10;;;;;;;24.28;54.10;94695.34;4131992;28;20057;-66
2022/06/30 06:31:36;;;;;;;10.88;9.55;;;;;;;24.45;53.59;94691.84;4132093;28;20053;-68
2022/06/30 06:33:39;;;;;;;14.65;10.07;;;;;;;24.48;52.97;94689.53;4127567;28;20051;-66
2022/06/30 06:35:40;;;;;;;13.93;10.25;;;;;;;24.43;52.60;94684.03;4130454;28;20123;-65
2022/06/30 06:37:42;;;;;;;14.40;10.00;;;;;;;24.46;53.07;94680.09;4143003;28;20046;-65
2022/06/30 06:39:44;;;;;;;13.15;9.95;;;;;;;24.48;52.78;94691.38;4143703;28;20077;-65
2022/06/30 06:41:46;;;;;;;15.50;9.30;;;;;;;24.56;53.00;94679.44;4132690;28;20084;-69
2022/06/30 06:43:48;;;;;;;14.98;9.90;;;;;;;24.67;52.17;94682.03;4131434;28;20039;-68
2022/06/30 06:45:50;;;;;;;11.38;9.23;;;;;;;24.70;52.17;94676.16;4128486;28;20058;-68
2022/06/30 06:47:52;;;;;;;16.27;9.65;;;;;;;24.83;51.34;94675.00;4129005;28;20089;-66
2022/06/30 06:49:54;;;;;;;13.93;9.23;;;;;;;24.85;51.68;94675.53;4128731;28;20097;-64
2022/06/30 06:51:56;;;;;;;13.98;9.75;;;;;;;24.79;51.76;94673.84;4135885;28;20121;-65
2022/06/30 06:53:58;;;;;;;17.02;10.32;;;;;;;24.66;51.99;94674.22;4128803;28;20042;-67
2022/06/30 06:56:00;;;;;;;12.95;9.77;;;;;;;24.60;52.28;94665.31;4135978;28;20113;-64
2022/06/30 06:58:02;;;;;;;12.90;10.63;;;;;;;24.76;52.86;94673.53;4132673;28;20604;-65
2022/06/30 07:00:06;;;;;;;14.18;10.18;;;;;;;24.73;51.73;94675.66;4127977;28;20137;-65
2022/06/30 07:02:08;;;;;;;14.25;10.02;;;;;;;24.78;51.76;94663.38;4144277;28;20058;-66
2022/06/30 07:04:10;;;;;;;18.42;10.10;;;;;;;24.76;51.48;94668.19;4139902;28;20054;-64
2022/06/30 07:06:12;;;;;;;16.10;9.15;;;;;;;24.77;51.25;94670.63;4130296;28;20046;-63
2022/06/30 07:08:14;;;;;;;14.80;9.27;;;;;;;24.93;51.13;94675.13;4139776;28;20064;-65
2022/06/30 07:10:15;;;;;;;16.67;9.32;;;;;;;25.01;50.06;94670.38;4145919;28;20065;-65
2022/06/30 07:12:17;;;;;;;16.48;8.25;;;;;;;25.12;50.06;94664.06;4144764;28;20418;-65
2022/06/30 07:14:19;;;;;;;15.68;8.57;;;;;;;25.36;49.84;94667.34;4141475;28;20068;-66
2022/06/30 07:16:21;;;;;;;13.57;9.02;;;;;;;25.54;49.12;94658.13;4135385;28;20323;-65
2022/06/30 07:18:23;;;;;;;12.63;7.85;;;;;;;25.70;48.93;94661.75;4135831;28;20052;-67
2022/06/30 07:20:25;;;;;;;21.05;10.73;;;;;;;25.76;48.93;94663.41;4129899;28;20601;-66
2022/06/30 07:22:27;;;;;;;17.60;9.38;;;;;;;25.46;49.20;94671.97;4151392;28;20063;-65
2022/06/30 07:24:29;;;;;;;12.98;8.57;;;;;;;25.48;49.53;94661.81;4141246;28;20065;-66
2022/06/30 07:26:31;;;;;;;11.77;8.60;;;;;;;25.47;49.54;94668.25;4129371;28;20058;-65
2022/06/30 07:28:34;;;;;;;14.00;8.75;;;;;;;25.61;49.37;94652.53;4127864;28;20054;-67
2022/06/30 07:30:53;;;;;;;17.05;9.68;;;;;;;25.64;49.39;94662.75;4129263;28;20054;-67
2022/06/30 07:32:55;;;;;;;13.10;9.05;;;;;;;25.42;50.44;94666.28;4128962;28;20133;-65
2022/06/30 07:34:57;;;;;;;16.77;9.52;;;;;;;25.57;50.05;94662.16;4141245;28;20050;-65
2022/06/30 07:36:59;;;;;;;12.05;8.93;;;;;;;25.79;49.44;94659.41;4136502;28;20088;-65
2022/06/30 07:39:01;;;;;;;16.65;8.73;;;;;;;26.00;49.38;94661.22;4145029;28;20057;-67
2022/06/30 07:41:03;;;;;;;14.48;9.40;;;;;;;26.19;49.11;94658.16;4138569;28;20042;-66
2022/06/30 07:43:05;;;;;;;11.88;8.52;;;;;;;26.34;48.57;94661.72;4144316;28;20054;-66
2022/06/30 07:45:07;;;;;;;13.85;8.85;;;;;;;26.34;47.40;94656.34;4144388;28;20116;-66
2022/06/30 07:47:10;;;;;;;14.13;7.65;;;;;;;26.32;46.79;94655.81;4130286;28;20652;-67
2022/06/30 07:49:12;;;;;;;14.55;8.40;;;;;;;26.45;47.08;94654.56;4129222;28;20046;-66
2022/06/30 07:51:16;;;;;;;11.07;7.78;;;;;;;26.62;47.20;94658.97;4135970;28;20050;-66
2022/06/30 07:53:18;;;;;;;14.70;7.88;;;;;;;26.67;47.26;94659.84;4144860;28;20041;-66
2022/06/30 07:55:20;;;;;;;15.10;7.43;;;;;;;26.77;47.00;94659.06;4144838;28;20053;-67
2022/06/30 07:57:22;;;;;;;14.07;7.35;;;;;;;26.92;46.32;94656.44;4131435;28;20105;-65
2022/06/30 07:59:34;;;;;;;13.18;7.70;;;;;;;26.94;45.72;94653.50;4128776;28;20051;-64
2022/06/30 08:01:35;;;;;;;11.90;6.88;;;;;;;26.85;44.95;94653.19;4139777;28;20115;-66
2022/06/30 08:03:38;;;;;;;13.63;7.53;;;;;;;26.77;45.15;94651.00;4129533;28;20042;-67
2022/06/30 08:05:40;;;;;;;17.70;7.53;;;;;;;26.88;45.97;94652.66;4142960;28;20414;-66
2022/06/30 08:07:42;;;;;;;12.48;6.82;;;;;;;27.04;45.14;94653.53;4133592;28;20051;-67
2022/06/30 08:09:44;;;;;;;10.88;6.70;;;;;;;27.24;44.86;94652.81;4128851;28;20054;-65
2022/06/30 08:11:46;;;;;;;10.35;6.78;;;;;;;27.43;43.82;94657.72;4128923;28;20124;-65
2022/06/30 08:13:47;;;;;;;9.85;6.40;;;;;;;27.54;43.17;94657.47;4128462;28;20054;-66
2022/06/30 08:15:49;;;;;;;9.50;6.53;;;;;;;27.66;42.72;94651.84;4141783;28;20054;-67
2022/06/30 08:17:52;;;;;;;7.93;5.95;;;;;;;27.73;42.68;94648.88;4128191;28;20109;-65
2022/06/30 08:19:54;;;;;;;12.82;6.43;;;;;;;27.88;42.24;94648.13;4129116;28;20042;-65
2022/06/30 08:21:56;;;;;;;11.93;6.53;;;;;;;27.93;42.24;94651.59;4146302;28;20057;-65
2022/06/30 08:23:58;;;;;;;11.70;7.00;;;;;;;28.02;41.18;94651.06;4136699;28;20050;-65
2022/06/30 08:25:59;;;;;;;12.80;6.50;;;;;;;27.96;40.61;94653.78;4140193;28;20050;-63
2022/06/30 08:28:03;;;;;;;10.60;6.53;;;;;;;27.83;41.04;94645.38;4131223;28;21044;-65
2022/06/30 08:30:06;;;;;;;9.70;6.30;;;;;;;27.89;42.11;94647.84;4140189;28;20078;-66
2022/06/30 08:32:08;;;;;;;7.17;5.80;;;;;;;27.71;41.02;94649.16;4144156;28;20058;-66
2022/06/30 08:34:09;;;;;;;17.00;6.32;;;;;;;27.69;41.27;94648.59;4131810;28;20283;-67
2022/06/30 08:36:11;;;;;;;9.57;6.18;;;;;;;27.75;41.93;94649.44;4141688;28;20057;-66
2022/06/30 08:38:13;;;;;;;9.38;6.20;;;;;;;27.81;41.67;94647.53;4128822;28;20128;-66
2022/06/30 08:42:36;;;;;;;9.40;5.72;;;;;;;28.13;42.30;94653.47;4134240;28;20050;-64
2022/06/30 08:44:38;;;;;;;11.53;5.57;;;;;;;28.33;41.73;94652.66;4135598;28;20049;-64
2022/06/30 08:46:40;;;;;;;12.93;5.57;;;;;;;28.50;41.06;94659.66;4129239;28;20304;-66
2022/06/30 08:48:42;;;;;;;13.13;5.43;;;;;;;28.64;40.39;94651.84;4126465;28;20406;-65
2022/06/30 08:50:46;;;;;;;8.27;5.57;;;;;;;28.71;40.13;94646.94;4133852;28;20133;-64
2022/06/30 08:52:51;;;;;;;8.88;6.10;;;;;;;28.73;40.61;94653.69;4129276;28;20161;-65
2022/06/30 08:54:53;;;;;;;11.35;5.35;;;;;;;28.76;39.93;94649.63;4136145;28;20568;-66
2022/06/30 08:56:57;;;;;;;10.07;5.43;;;;;;;28.79;40.11;94655.28;4135704;28;20054;-65
2022/06/30 08:59:06;;;;;;;11.77;6.03;;;;;;;28.85;39.55;94652.59;4143735;28;20112;-63
2022/06/30 09:01:08;;;;;;;10.35;5.72;;;;;;;28.93;39.94;94650.13;4143742;28;20102;-66
2022/06/30 09:03:11;;;;;;;11.80;5.90;;;;;;;29.01;39.54;94651.44;4140997;28;20061;-67
2022/06/30 09:05:14;;;;;;;7.63;5.43;;;;;;;28.78;40.05;94650.16;4144105;28;20060;-66
2022/06/30 09:07:15;;;;;;;9.88;5.70;;;;;;;28.30;40.12;94647.00;4128994;28;20065;-66
2022/06/30 09:09:18;;;;;;;8.60;5.03;;;;;;;28.09;40.18;94647.03;4129108;28;20076;-66
2022/06/30 09:11:56;;;;;;;8.15;5.47;;;;;;;28.33;40.79;94641.06;4129733;28;20568;-65
2022/06/30 09:14:00;;;;;;;8.50;5.63;;;;;;;28.29;41.34;94643.50;4131613;28;20058;-66
2022/06/30 09:16:04;;;;;;;12.15;5.60;;;;;;;28.27;41.43;94640.28;4134254;28;20042;-67
2022/06/30 09:18:06;;;;;;;10.43;5.55;;;;;;;28.42;41.41;94636.75;4130418;28;20478;-65
2022/06/30 09:20:09;;;;;;;7.30;4.97;;;;;;;28.61;41.05;94634.31;4130833;28;20461;-65
2022/06/30 09:22:14;;;;;;;12.13;5.37;;;;;;;28.51;40.29;94629.75;4152963;28;20083;-66
2022/06/30 09:24:22;;;;;;;7.20;5.30;;;;;;;28.19;40.57;94630.84;4146111;28;20136;-68
2022/06/30 09:26:24;;;;;;;11.70;5.13;;;;;;;28.30;40.86;94628.16;4131472;28;20142;-65
2022/06/30 09:28:43;;;;;;;12.20;5.72;;;;;;;28.54;41.12;94625.69;4136809;28;20378;-65
2022/06/30 09:31:05;;;;;;;7.00;4.90;;;;;;;28.84;41.19;94629.38;4132996;28;20054;-66
2022/06/30 09:33:08;;;;;;;8.38;4.70;;;;;;;28.89;39.39;94619.41;4132252;28;20509;-65
2022/06/30 09:35:11;;;;;;;9.25;5.05;;;;;;;29.03;39.48;94627.69;4146752;28;20045;-66
2022/06/30 09:37:22;;;;;;;5.78;4.70;;;;;;;29.15;39.87;94624.72;4146480;28;20528;-68
2022/06/30 09:39:24;;;;;;;7.68;4.97;;;;;;;29.35;39.95;94624.59;4134872;28;20391;-66
2022/06/30 09:41:29;;;;;;;11.57;5.50;;;;;;;29.45;39.08;94618.31;4145764;28;20140;-68
2022/06/30 09:43:37;;;;;;;7.85;4.97;;;;;;;29.43;37.77;94625.06;4145374;28;20120;-67
2022/06/30 09:45:41;;;;;;;9.05;4.45;;;;;;;28.95;37.69;94626.38;4132086;28;20444;-66